Wild Peach Village, Texas
Current Conditions -  °F | °C
As of 12:53 PM on Thursday 27 Nov 2014 (Local Time) from KLBX Reporting Station
Clear Clear  
Wind Chill: 64°   Ceiling: Unl
Heat Index: 64°   Visibility: 10mi
Dew Point: 28°   Wind: 10mph
Humidity: 26%   Direction: 80°E
Pressure: 30.44"   Gusts: 16mph
Location:  28.9272°N, 95.5834°W
Report Text: KLBX 271853Z AUTO 08009G14KT 10SM CLR 18/M02 A3044 RMK AO2 SLP306 T01781022
Loading
Personal Weather Stations






























Interactive Weather Map New forecast layout! Learn more

10-Day Weather Forecast

Advertisements
Track Severe Weather on mobile